createdAt,value
2023-03-16T00:00:09.402Z,81.70
2023-03-16T00:02:36.461Z,81.40
2023-03-16T00:05:03.622Z,81.20
2023-03-16T00:07:30.956Z,81.20
2023-03-16T00:09:58.029Z,81.30
2023-03-16T00:12:26.176Z,81.00
2023-03-16T00:14:54.137Z,80.90
2023-03-16T00:17:21.801Z,80.90
2023-03-16T00:19:54.891Z,81.70
2023-03-16T00:22:25.099Z,81.80
2023-03-16T00:24:53.156Z,81.20
2023-03-16T00:27:24.036Z,81.10
2023-03-16T00:29:55.939Z,81.10
2023-03-16T00:32:26.818Z,81.00
2023-03-16T00:34:54.024Z,81.90
2023-03-16T00:37:23.416Z,81.90
2023-03-16T00:39:51.828Z,82.70
2023-03-16T00:42:19.965Z,82.50
2023-03-16T00:44:47.097Z,82.70
2023-03-16T00:47:14.634Z,82.70
2023-03-16T00:49:43.982Z,82.70
2023-03-16T00:52:16.175Z,83.00
2023-03-16T00:54:45.359Z,82.60
2023-03-16T00:57:16.336Z,82.60
2023-03-16T00:59:43.443Z,82.60
2023-03-16T01:02:10.889Z,82.80
2023-03-16T01:04:39.807Z,82.60
2023-03-16T01:07:13.987Z,82.40
2023-03-16T01:09:41.796Z,82.80
2023-03-16T01:12:14.945Z,82.70
2023-03-16T01:14:45.640Z,83.20
2023-03-16T01:17:14.476Z,82.40
2023-03-16T01:19:42.204Z,81.20
2023-03-16T01:22:11.566Z,80.90
2023-03-16T01:24:39.421Z,80.80
2023-03-16T01:27:07.714Z,80.40
2023-03-16T01:29:35.463Z,80.50
2023-03-16T01:32:04.172Z,80.50
2023-03-16T01:34:31.916Z,81.20
2023-03-16T01:36:59.915Z,81.70
2023-03-16T01:39:27.427Z,81.90
2023-03-16T01:41:54.616Z,82.00
2023-03-16T01:44:30.226Z,81.90
2023-03-16T01:46:57.661Z,81.90
2023-03-16T01:49:36.156Z,82.10
2023-03-16T01:52:12.485Z,82.40
2023-03-16T01:54:50.701Z,82.70
2023-03-16T01:57:30.486Z,82.60
2023-03-16T02:00:18.426Z,82.30
2023-03-16T02:02:51.453Z,82.10
2023-03-16T02:05:42.214Z,82.20
2023-03-16T02:08:12.505Z,81.80
2023-03-16T02:10:40.891Z,81.80
2023-03-16T02:13:08.400Z,81.70
2023-03-16T02:15:36.060Z,81.60
2023-03-16T02:18:04.682Z,81.50
2023-03-16T02:20:51.372Z,81.00
2023-03-16T02:23:20.975Z,80.80
2023-03-16T02:26:12.263Z,80.80
2023-03-16T02:29:06.295Z,80.60
2023-03-16T02:31:34.140Z,80.60
2023-03-16T02:34:01.808Z,80.60
2023-03-16T02:36:30.608Z,80.50
2023-03-16T02:38:57.666Z,80.60
2023-03-16T02:41:25.020Z,80.60
2023-03-16T02:44:15.100Z,80.80
2023-03-16T02:46:44.415Z,81.90
2023-03-16T02:49:25.338Z,81.80
2023-03-16T02:51:52.522Z,81.70
2023-03-16T02:54:19.611Z,81.50
2023-03-16T02:56:46.719Z,81.50
2023-03-16T02:59:13.836Z,81.60
2023-03-16T03:01:40.964Z,81.50
2023-03-16T03:04:08.138Z,81.60
2023-03-16T03:06:35.632Z,81.70
2023-03-16T03:09:03.671Z,82.10
2023-03-16T03:11:30.760Z,81.90
2023-03-16T03:13:58.322Z,81.90
2023-03-16T03:16:25.501Z,81.40
2023-03-16T03:18:52.750Z,81.90
2023-03-16T03:21:20.664Z,82.10
2023-03-16T03:23:48.040Z,81.80
2023-03-16T03:26:15.502Z,82.20
2023-03-16T03:28:43.154Z,81.10
2023-03-16T03:31:19.322Z,81.60
2023-03-16T03:33:46.379Z,80.90
2023-03-16T03:36:14.073Z,80.80
2023-03-16T03:38:41.342Z,80.80
2023-03-16T03:41:08.421Z,80.80
2023-03-16T03:43:35.976Z,80.90
2023-03-16T03:46:04.053Z,80.60
2023-03-16T03:48:31.258Z,82.10
2023-03-16T03:50:58.496Z,83.20
2023-03-16T03:53:25.677Z,83.50
2023-03-16T03:55:53.536Z,83.60
2023-03-16T03:58:20.595Z,83.60
2023-03-16T04:00:47.631Z,83.40
2023-03-16T04:03:15.045Z,83.50
2023-03-16T04:05:42.305Z,83.60
2023-03-16T04:08:09.358Z,83.50
2023-03-16T04:10:36.414Z,83.80
2023-03-16T04:13:03.560Z,83.60
2023-03-16T04:15:32.816Z,83.80
2023-03-16T04:18:00.186Z,83.60
2023-03-16T04:20:29.854Z,83.90
2023-03-16T04:22:58.631Z,83.50
2023-03-16T04:25:26.974Z,83.20
2023-03-16T04:27:54.287Z,83.00
2023-03-16T04:30:23.377Z,82.70
2023-03-16T04:32:52.288Z,82.70
2023-03-16T04:35:19.860Z,82.50
2023-03-16T04:37:46.949Z,82.40
2023-03-16T04:40:17.386Z,82.30
2023-03-16T04:42:45.874Z,82.10
2023-03-16T04:45:14.556Z,82.00
2023-03-16T04:47:41.653Z,81.80
2023-03-16T04:50:10.397Z,81.80
2023-03-16T04:52:37.690Z,81.90
2023-03-16T04:55:05.913Z,82.00
2023-03-16T04:57:33.279Z,81.80
2023-03-16T05:00:00.767Z,81.60
2023-03-16T05:02:28.103Z,82.10
2023-03-16T05:04:55.259Z,82.60
2023-03-16T05:07:22.325Z,82.50
2023-03-16T05:09:49.390Z,82.20
2023-03-16T05:12:16.433Z,82.00
2023-03-16T05:14:43.510Z,81.60
2023-03-16T05:17:10.561Z,81.70
2023-03-16T05:19:37.629Z,81.50
2023-03-16T05:22:04.678Z,81.40
2023-03-16T05:24:32.116Z,81.40
2023-03-16T05:26:59.170Z,81.70
2023-03-16T05:29:26.674Z,82.00
2023-03-16T05:31:54.027Z,82.40
2023-03-16T05:34:21.099Z,82.40
2023-03-16T05:36:48.671Z,82.50
2023-03-16T05:39:15.949Z,82.70
2023-03-16T05:41:43.698Z,82.80
2023-03-16T05:44:11.028Z,82.80
2023-03-16T05:46:38.185Z,82.90
2023-03-16T05:49:05.267Z,83.10
2023-03-16T05:51:32.525Z,82.90
2023-03-16T05:53:59.581Z,82.40
2023-03-16T05:56:28.098Z,81.80
2023-03-16T05:58:55.934Z,81.40
2023-03-16T06:01:23.719Z,81.10
2023-03-16T06:03:54.028Z,81.20
2023-03-16T06:06:22.573Z,81.00
2023-03-16T06:08:49.662Z,80.70
2023-03-16T06:11:17.108Z,80.40
2023-03-16T06:13:44.168Z,80.90
2023-03-16T06:16:13.719Z,81.60
2023-03-16T06:18:41.248Z,81.00
2023-03-16T06:21:08.561Z,82.00
2023-03-16T06:23:35.715Z,82.00
2023-03-16T06:26:02.897Z,81.70
2023-03-16T06:28:30.929Z,81.50
2023-03-16T06:30:58.466Z,81.20
2023-03-16T06:33:25.581Z,81.10
2023-03-16T06:35:53.115Z,81.00
2023-03-16T06:38:20.769Z,80.70
2023-03-16T06:40:54.864Z,80.60
2023-03-16T06:43:22.040Z,80.30
2023-03-16T06:45:49.100Z,80.20
2023-03-16T06:48:16.162Z,80.50
2023-03-16T06:50:45.462Z,80.20
2023-03-16T06:53:12.649Z,79.90
2023-03-16T06:55:40.417Z,79.80
2023-03-16T06:58:07.964Z,79.50
2023-03-16T07:00:35.092Z,79.60
2023-03-16T07:03:02.208Z,79.80
2023-03-16T07:05:29.604Z,80.50
2023-03-16T07:07:56.745Z,79.70
2023-03-16T07:10:25.175Z,79.90
2023-03-16T07:12:52.577Z,80.00
2023-03-16T07:15:19.756Z,79.80
2023-03-16T07:17:46.813Z,79.50
2023-03-16T07:20:13.949Z,79.80
2023-03-16T07:22:41.750Z,79.70
2023-03-16T07:25:11.238Z,79.70
2023-03-16T07:27:38.861Z,80.20
2023-03-16T07:30:06.484Z,80.60
2023-03-16T07:32:33.583Z,80.60
2023-03-16T07:35:00.670Z,80.90
2023-03-16T07:37:27.830Z,80.40
2023-03-16T07:39:54.974Z,79.90
2023-03-16T07:42:22.659Z,80.20
2023-03-16T07:44:51.752Z,80.50
2023-03-16T07:47:19.656Z,80.50
2023-03-16T07:49:46.852Z,80.30
2023-03-16T07:52:13.994Z,80.40
2023-03-16T07:54:41.601Z,80.30
2023-03-16T07:57:09.092Z,80.30
2023-03-16T07:59:36.164Z,80.30
2023-03-16T08:02:03.873Z,80.00
2023-03-16T08:04:31.310Z,79.70
2023-03-16T08:07:02.015Z,79.90
2023-03-16T08:09:29.086Z,80.00
2023-03-16T08:11:56.177Z,80.20
2023-03-16T08:14:23.685Z,80.30
2023-03-16T08:16:51.564Z,80.20
2023-03-16T08:19:20.173Z,80.10
2023-03-16T08:22:00.660Z,80.10
2023-03-16T08:24:29.466Z,79.90
2023-03-16T08:26:59.366Z,80.00
2023-03-16T08:29:27.106Z,79.80
2023-03-16T08:31:56.256Z,79.70
2023-03-16T08:34:25.329Z,79.50
2023-03-16T08:36:53.820Z,79.50
2023-03-16T08:39:21.585Z,79.10
2023-03-16T08:41:48.880Z,78.20
2023-03-16T08:44:15.988Z,77.60
2023-03-16T08:46:43.383Z,77.40
2023-03-16T08:49:11.010Z,75.60
2023-03-16T08:51:38.086Z,72.30
2023-03-16T08:54:05.171Z,72.20
2023-03-16T08:56:32.385Z,73.10
2023-03-16T08:58:59.674Z,73.80
2023-03-16T09:01:27.437Z,73.20
2023-03-16T09:03:54.888Z,73.80
2023-03-16T09:06:22.374Z,73.40
2023-03-16T09:08:49.451Z,73.30
2023-03-16T09:11:18.726Z,73.00
2023-03-16T09:13:47.211Z,72.50
2023-03-16T09:16:15.808Z,73.10
2023-03-16T09:18:43.647Z,70.50
2023-03-16T09:21:13.774Z,66.00
2023-03-16T09:23:42.695Z,69.10
2023-03-16T09:26:12.379Z,66.60
2023-03-16T09:28:42.362Z,65.20
2023-03-16T09:31:15.238Z,65.20
2023-03-16T09:33:42.784Z,63.60
2023-03-16T09:36:11.814Z,64.70
2023-03-16T09:38:39.481Z,68.20
2023-03-16T09:41:23.653Z,67.40
2023-03-16T09:43:58.043Z,68.20
2023-03-16T09:46:28.783Z,68.80
2023-03-16T09:48:57.991Z,69.50
2023-03-16T09:51:37.994Z,70.10
2023-03-16T09:54:32.053Z,70.20
2023-03-16T09:57:01.387Z,70.70
2023-03-16T09:59:28.500Z,71.30
2023-03-16T10:02:14.438Z,71.30
2023-03-16T10:05:07.476Z,71.70
2023-03-16T10:07:56.939Z,71.80
2023-03-16T10:10:55.374Z,72.10
2023-03-16T10:13:41.558Z,72.50
2023-03-16T10:16:20.314Z,72.80
2023-03-16T10:18:51.118Z,73.00
2023-03-16T10:21:19.455Z,73.20
2023-03-16T10:23:49.699Z,73.50
2023-03-16T10:26:28.547Z,73.90
2023-03-16T10:28:55.609Z,73.80
2023-03-16T10:31:24.363Z,74.20
2023-03-16T10:34:02.537Z,74.30
2023-03-16T10:36:35.883Z,74.30
2023-03-16T10:39:09.312Z,74.40
2023-03-16T10:41:40.102Z,74.50
2023-03-16T10:44:16.802Z,74.60
2023-03-16T10:46:50.812Z,74.50
2023-03-16T10:49:22.347Z,74.80
2023-03-16T10:51:49.602Z,74.70
2023-03-16T10:54:24.890Z,74.80
2023-03-16T10:56:51.977Z,74.80
2023-03-16T10:59:35.616Z,74.80
2023-03-16T11:02:22.977Z,74.90
2023-03-16T11:04:50.852Z,74.80
2023-03-16T11:07:20.815Z,74.70
2023-03-16T11:09:48.903Z,74.80
2023-03-16T11:12:30.099Z,74.70
2023-03-16T11:15:25.247Z,74.80
2023-03-16T11:17:55.951Z,74.90
2023-03-16T11:20:30.644Z,75.00
2023-03-16T11:23:00.421Z,75.00
2023-03-16T11:25:37.181Z,74.90
2023-03-16T11:28:13.337Z,75.30
2023-03-16T11:30:46.608Z,75.10
2023-03-16T11:33:15.331Z,75.00
2023-03-16T11:35:59.346Z,75.50
2023-03-16T11:38:34.503Z,75.60
2023-03-16T11:41:03.070Z,75.50
2023-03-16T11:43:49.240Z,75.70
2023-03-16T11:46:39.103Z,75.80
2023-03-16T11:49:47.897Z,75.80
2023-03-16T11:52:20.875Z,75.80
2023-03-16T11:55:09.096Z,75.80
2023-03-16T11:57:54.832Z,75.90
2023-03-16T12:00:48.843Z,76.00
2023-03-16T12:03:40.750Z,75.90
2023-03-16T12:07:01.241Z,75.80
2023-03-16T12:09:50.883Z,75.90
2023-03-16T12:12:26.966Z,75.70
2023-03-16T12:15:32.600Z,75.60
2023-03-16T12:18:11.118Z,75.60
2023-03-16T12:21:09.262Z,75.50
2023-03-16T12:23:46.135Z,75.50
2023-03-16T12:26:14.615Z,75.40
2023-03-16T12:28:42.554Z,75.30
2023-03-16T12:31:27.763Z,75.20
2023-03-16T12:34:07.742Z,75.20
2023-03-16T12:36:49.933Z,75.20
2023-03-16T12:39:16.963Z,75.20
2023-03-16T12:41:49.914Z,75.30
2023-03-16T12:44:42.011Z,75.20
2023-03-16T12:47:39.746Z,75.40
2023-03-16T12:50:11.185Z,75.30
2023-03-16T12:53:04.998Z,75.30
2023-03-16T12:55:34.794Z,75.50
2023-03-16T12:58:06.307Z,75.30
2023-03-16T13:00:40.489Z,75.40
2023-03-16T13:03:15.376Z,75.40
2023-03-16T13:05:50.782Z,75.40
2023-03-16T13:08:20.441Z,75.30
2023-03-16T13:11:20.494Z,75.30
2023-03-16T13:14:01.512Z,75.30
2023-03-16T13:16:36.187Z,74.90
2023-03-16T13:19:30.331Z,74.80
2023-03-16T13:22:27.899Z,74.70
2023-03-16T13:24:57.025Z,74.60
2023-03-16T13:27:30.622Z,74.40
2023-03-16T13:30:14.948Z,74.40
2023-03-16T13:32:42.324Z,74.50
2023-03-16T13:35:15.394Z,74.50
2023-03-16T13:37:43.768Z,74.40
2023-03-16T13:40:27.460Z,74.60
2023-03-16T13:42:58.085Z,74.50
2023-03-16T13:45:33.467Z,74.00
2023-03-16T13:48:02.096Z,74.20
2023-03-16T13:50:33.657Z,74.10
2023-03-16T13:53:04.396Z,74.10
2023-03-16T13:55:34.552Z,74.20
2023-03-16T13:58:02.739Z,74.20
2023-03-16T14:00:34.608Z,73.90
2023-03-16T14:03:14.585Z,74.20
2023-03-16T14:05:41.872Z,74.20
2023-03-16T14:08:23.470Z,74.10
2023-03-16T14:10:51.668Z,74.20
2023-03-16T14:13:29.523Z,74.30
2023-03-16T14:16:01.039Z,74.40
2023-03-16T14:18:42.291Z,74.30
2023-03-16T14:21:23.655Z,74.60
2023-03-16T14:23:58.003Z,74.40
2023-03-16T14:26:25.575Z,74.30
2023-03-16T14:29:07.555Z,74.40
2023-03-16T14:31:40.774Z,74.60
2023-03-16T14:34:26.827Z,74.30
2023-03-16T14:36:54.042Z,74.10
2023-03-16T14:39:26.796Z,73.80
2023-03-16T14:41:54.445Z,73.70
2023-03-16T14:44:28.855Z,73.80
2023-03-16T14:46:57.290Z,74.00
2023-03-16T14:49:28.539Z,74.40
2023-03-16T14:52:02.077Z,74.50
2023-03-16T14:54:29.878Z,74.90
2023-03-16T14:57:02.709Z,75.20
2023-03-16T14:59:30.217Z,75.30
2023-03-16T15:01:59.141Z,75.30
2023-03-16T15:04:33.366Z,75.60
2023-03-16T15:07:21.658Z,75.70
2023-03-16T15:09:51.575Z,75.60
2023-03-16T15:12:20.336Z,75.90
2023-03-16T15:15:07.010Z,76.50
2023-03-16T15:17:34.134Z,75.90
2023-03-16T15:20:01.281Z,75.90
2023-03-16T15:22:35.443Z,75.90
2023-03-16T15:25:28.288Z,75.90
2023-03-16T15:27:55.518Z,75.70
2023-03-16T15:30:28.861Z,75.80
2023-03-16T15:32:56.549Z,75.90
2023-03-16T15:35:23.772Z,75.80
2023-03-16T15:37:51.127Z,75.70
2023-03-16T15:40:20.913Z,76.00
2023-03-16T15:42:48.204Z,75.70
2023-03-16T15:45:18.695Z,75.70
2023-03-16T15:47:46.800Z,75.80
2023-03-16T15:50:16.072Z,75.80
2023-03-16T15:52:49.561Z,75.80
2023-03-16T15:55:23.362Z,75.60
2023-03-16T15:57:58.641Z,75.70
2023-03-16T16:00:37.318Z,75.70
2023-03-16T16:03:06.286Z,75.80
2023-03-16T16:05:34.162Z,75.80
2023-03-16T16:08:01.331Z,75.70
2023-03-16T16:10:28.954Z,75.90
2023-03-16T16:12:56.970Z,76.30
2023-03-16T16:15:33.932Z,76.00
2023-03-16T16:18:20.498Z,76.00
2023-03-16T16:20:48.422Z,76.20
2023-03-16T16:23:15.609Z,76.30
2023-03-16T16:25:42.881Z,76.40
2023-03-16T16:28:22.905Z,76.50
2023-03-16T16:30:50.667Z,76.40
2023-03-16T16:33:29.859Z,76.40
2023-03-16T16:36:03.862Z,76.60
2023-03-16T16:38:31.523Z,76.60
2023-03-16T16:41:01.927Z,76.50
2023-03-16T16:43:46.522Z,76.70
2023-03-16T16:46:17.830Z,76.80
2023-03-16T16:48:59.780Z,77.90
2023-03-16T16:51:29.685Z,77.60
2023-03-16T16:53:58.824Z,78.20
2023-03-16T16:56:35.077Z,78.60
2023-03-16T16:59:13.804Z,77.90
2023-03-16T17:01:41.061Z,77.80
2023-03-16T17:04:17.158Z,77.90
2023-03-16T17:06:45.060Z,77.80
2023-03-16T17:09:14.191Z,77.60
2023-03-16T17:11:43.512Z,78.20
2023-03-16T17:14:16.819Z,78.90
2023-03-16T17:16:44.762Z,78.20
2023-03-16T17:19:23.166Z,78.20
2023-03-16T17:21:51.517Z,78.70
2023-03-16T17:24:18.844Z,79.00
2023-03-16T17:26:49.233Z,79.00
2023-03-16T17:29:16.231Z,79.00
2023-03-16T17:31:43.386Z,79.00
2023-03-16T17:34:22.369Z,79.20
2023-03-16T17:36:50.012Z,79.20
2023-03-16T17:39:31.704Z,79.20
2023-03-16T17:42:01.873Z,79.30
2023-03-16T17:44:34.834Z,79.40
2023-03-16T17:47:02.075Z,79.40
2023-03-16T17:49:30.624Z,79.40
2023-03-16T17:51:57.733Z,79.50
2023-03-16T17:54:24.782Z,79.10
2023-03-16T17:56:53.983Z,78.90
2023-03-16T17:59:22.747Z,78.90
2023-03-16T18:01:50.102Z,78.80
2023-03-16T18:04:19.902Z,78.80
2023-03-16T18:06:47.230Z,78.70
2023-03-16T18:09:18.692Z,78.70
2023-03-16T18:11:48.625Z,78.60
2023-03-16T18:14:37.106Z,78.50
2023-03-16T18:17:16.759Z,78.40
2023-03-16T18:19:45.450Z,78.40
2023-03-16T18:22:24.591Z,78.70
2023-03-16T18:24:53.762Z,78.70
2023-03-16T18:27:21.203Z,78.60
2023-03-16T18:29:48.332Z,78.60
2023-03-16T18:32:23.666Z,78.30
2023-03-16T18:34:52.535Z,78.30
2023-03-16T18:37:25.244Z,78.30
2023-03-16T18:39:54.102Z,78.30
2023-03-16T18:42:23.130Z,78.40
2023-03-16T18:44:51.038Z,78.20
2023-03-16T18:47:21.939Z,78.00
2023-03-16T18:49:52.836Z,78.10
2023-03-16T18:52:25.122Z,78.20
2023-03-16T18:54:53.042Z,78.10
2023-03-16T18:57:26.286Z,78.30
2023-03-16T18:59:53.825Z,78.70
2023-03-16T19:02:34.408Z,77.90
2023-03-16T19:05:03.500Z,78.00
2023-03-16T19:07:40.003Z,78.50
2023-03-16T19:10:20.350Z,78.20
2023-03-16T19:12:47.529Z,77.90
2023-03-16T19:15:30.511Z,78.40
2023-03-16T19:17:58.646Z,78.30
2023-03-16T19:20:28.372Z,78.20
2023-03-16T19:23:08.431Z,78.00
2023-03-16T19:25:37.988Z,78.10
2023-03-16T19:28:07.589Z,78.00
2023-03-16T19:30:35.741Z,78.00
2023-03-16T19:33:03.224Z,78.00
2023-03-16T19:35:48.358Z,77.80
2023-03-16T19:38:18.146Z,78.60
2023-03-16T19:40:47.490Z,78.80
2023-03-16T19:43:19.513Z,78.70
2023-03-16T19:45:48.218Z,78.50
2023-03-16T19:48:20.927Z,78.70
2023-03-16T19:50:50.127Z,78.40
2023-03-16T19:53:19.945Z,78.30
2023-03-16T19:55:49.294Z,78.00
2023-03-16T19:58:38.329Z,78.00
2023-03-16T20:01:17.386Z,78.30
2023-03-16T20:03:46.337Z,78.10
2023-03-16T20:06:18.844Z,78.10
2023-03-16T20:08:46.853Z,77.90
2023-03-16T20:11:25.998Z,77.90
2023-03-16T20:13:53.321Z,77.90
2023-03-16T20:16:28.306Z,78.00
2023-03-16T20:18:58.740Z,78.10
2023-03-16T20:21:27.377Z,78.30
2023-03-16T20:23:54.454Z,78.50
2023-03-16T20:26:28.976Z,78.60
2023-03-16T20:28:56.520Z,78.40
2023-03-16T20:31:31.826Z,78.30
2023-03-16T20:33:58.981Z,78.40
2023-03-16T20:36:27.008Z,78.40
2023-03-16T20:38:54.125Z,78.50
2023-03-16T20:41:28.009Z,78.60
2023-03-16T20:43:56.310Z,78.40
2023-03-16T20:46:27.752Z,78.30
2023-03-16T20:48:55.895Z,78.10
2023-03-16T20:51:23.412Z,78.20
2023-03-16T20:53:50.574Z,78.20
2023-03-16T20:56:20.832Z,78.40
2023-03-16T20:58:49.882Z,78.40
2023-03-16T21:01:21.524Z,78.70
2023-03-16T21:03:52.893Z,78.70
2023-03-16T21:06:23.595Z,78.90
2023-03-16T21:08:52.376Z,78.70
2023-03-16T21:11:31.872Z,78.00
2023-03-16T21:13:58.964Z,77.90
2023-03-16T21:16:26.639Z,77.80
2023-03-16T21:18:53.784Z,77.70
2023-03-16T21:21:21.188Z,77.70
2023-03-16T21:23:48.264Z,77.60
2023-03-16T21:26:20.891Z,77.90
2023-03-16T21:28:55.585Z,77.70
2023-03-16T21:31:23.368Z,77.90
2023-03-16T21:33:53.667Z,77.80
2023-03-16T21:36:23.361Z,77.70
2023-03-16T21:38:50.868Z,77.60
2023-03-16T21:41:18.363Z,77.40
2023-03-16T21:43:46.867Z,77.30
2023-03-16T21:46:16.159Z,77.00
2023-03-16T21:48:44.526Z,76.90
2023-03-16T21:51:18.702Z,76.90
2023-03-16T21:53:47.777Z,76.70
2023-03-16T21:56:17.618Z,76.60
2023-03-16T21:58:46.289Z,76.10
2023-03-16T22:01:22.998Z,76.30
2023-03-16T22:03:53.235Z,76.20
2023-03-16T22:06:22.188Z,76.10
2023-03-16T22:08:51.108Z,76.10
2023-03-16T22:11:21.216Z,75.90
2023-03-16T22:13:49.976Z,76.30
2023-03-16T22:16:19.459Z,76.40
2023-03-16T22:18:49.114Z,76.30
2023-03-16T22:21:37.489Z,76.30
2023-03-16T22:24:16.854Z,76.10
2023-03-16T22:26:44.381Z,75.90
2023-03-16T22:29:26.212Z,75.80
2023-03-16T22:32:04.125Z,75.50
2023-03-16T22:34:32.873Z,75.60
2023-03-16T22:37:01.975Z,75.60
2023-03-16T22:39:33.174Z,75.50
2023-03-16T22:42:01.013Z,75.70
2023-03-16T22:44:28.236Z,76.10
2023-03-16T22:46:55.817Z,76.10
2023-03-16T22:49:27.753Z,75.90
2023-03-16T22:51:57.243Z,76.10
2023-03-16T22:54:27.325Z,76.10
2023-03-16T22:56:54.636Z,76.00
2023-03-16T22:59:25.163Z,75.80
2023-03-16T23:01:52.274Z,76.00
2023-03-16T23:04:22.607Z,76.00
2023-03-16T23:06:54.144Z,75.90
2023-03-16T23:09:22.222Z,76.00
2023-03-16T23:11:54.313Z,76.10
2023-03-16T23:14:28.950Z,76.00
2023-03-16T23:16:56.604Z,75.90
2023-03-16T23:19:33.916Z,75.90
2023-03-16T23:22:06.008Z,76.00
2023-03-16T23:24:34.308Z,75.90
2023-03-16T23:27:02.015Z,75.90
2023-03-16T23:29:29.943Z,75.90
2023-03-16T23:31:57.789Z,75.80
2023-03-16T23:34:26.098Z,75.90
2023-03-16T23:36:53.338Z,76.40
2023-03-16T23:39:20.476Z,76.60
2023-03-16T23:41:48.776Z,77.20
2023-03-16T23:44:25.787Z,77.60
2023-03-16T23:46:53.195Z,77.90
2023-03-16T23:49:30.519Z,78.20
2023-03-16T23:51:59.249Z,78.50
2023-03-16T23:54:29.616Z,79.10
2023-03-16T23:56:57.268Z,79.50
2023-03-16T23:59:24.949Z,79.50
